createdAt,value
2022-11-27T00:01:10.927Z,5.06
2022-11-27T00:04:13.955Z,4.92
2022-11-27T00:07:16.783Z,4.86
2022-11-27T00:10:19.742Z,4.83
2022-11-27T00:13:23.930Z,4.80
2022-11-27T00:16:27.720Z,4.79
2022-11-27T00:19:30.539Z,4.76
2022-11-27T00:22:33.294Z,4.75
2022-11-27T00:25:36.029Z,4.69
2022-11-27T00:28:40.246Z,4.71
2022-11-27T00:31:43.049Z,4.63
2022-11-27T00:34:45.884Z,4.63
2022-11-27T00:37:48.647Z,4.65
2022-11-27T00:40:51.373Z,4.71
2022-11-27T00:43:56.437Z,4.82
2022-11-27T00:46:59.202Z,4.86
2022-11-27T00:50:01.991Z,4.99
2022-11-27T00:53:04.736Z,4.98
2022-11-27T00:56:08.095Z,5.01
2022-11-27T00:59:12.653Z,5.08
2022-11-27T01:02:15.459Z,5.17
2022-11-27T01:05:18.294Z,5.21
2022-11-27T01:08:21.269Z,5.32
2022-11-27T01:11:26.642Z,5.40
2022-11-27T01:14:30.843Z,5.44
2022-11-27T01:17:33.724Z,5.48
2022-11-27T01:20:39.362Z,5.49
2022-11-27T01:23:42.312Z,5.51
2022-11-27T01:26:46.065Z,5.54
2022-11-27T01:29:50.137Z,5.58
2022-11-27T01:32:52.971Z,5.58
2022-11-27T01:35:57.303Z,5.55
2022-11-27T01:39:01.114Z,5.49
2022-11-27T01:42:04.374Z,5.45
2022-11-27T01:45:11.958Z,5.35
2022-11-27T01:48:15.579Z,5.28
2022-11-27T01:51:19.515Z,5.17
2022-11-27T01:54:23.987Z,5.28
2022-11-27T01:57:29.795Z,5.27
2022-11-27T02:00:34.327Z,5.27
2022-11-27T02:03:37.287Z,5.29
2022-11-27T02:06:40.311Z,4.99
2022-11-27T02:09:43.275Z,5.20
2022-11-27T02:12:54.404Z,5.09
2022-11-27T02:16:15.069Z,5.05
2022-11-27T02:19:34.356Z,4.95
2022-11-27T02:22:51.466Z,4.91
2022-11-27T02:26:10.756Z,4.82
2022-11-27T02:29:16.593Z,4.76
2022-11-27T02:32:24.578Z,4.71
2022-11-27T02:35:30.828Z,4.75
2022-11-27T02:38:39.292Z,4.68
2022-11-27T02:41:49.570Z,4.76
2022-11-27T02:44:59.541Z,4.74
2022-11-27T02:48:02.386Z,4.73
2022-11-27T02:51:07.532Z,4.78
2022-11-27T02:54:14.826Z,4.75
2022-11-27T02:57:19.887Z,4.75
2022-11-27T03:00:25.126Z,4.74
2022-11-27T03:03:32.840Z,4.76
2022-11-27T03:06:40.496Z,4.76
2022-11-27T03:09:47.385Z,4.65
2022-11-27T03:12:50.708Z,4.83
2022-11-27T03:16:09.899Z,4.87
2022-11-27T03:19:18.600Z,4.87
2022-11-27T03:22:21.489Z,4.66
2022-11-27T03:25:24.931Z,4.65
2022-11-27T03:28:29.673Z,4.53
2022-11-27T03:31:34.278Z,4.46
2022-11-27T03:34:37.763Z,4.42
2022-11-27T03:37:40.778Z,4.47
2022-11-27T03:40:50.757Z,4.46
2022-11-27T03:44:06.777Z,4.39
2022-11-27T03:47:19.149Z,4.38
2022-11-27T03:50:33.117Z,4.28
2022-11-27T03:53:48.440Z,4.19
2022-11-27T03:56:57.744Z,4.15
2022-11-27T04:00:04.926Z,4.13
2022-11-27T04:03:11.143Z,4.04
2022-11-27T04:06:13.915Z,4.04
2022-11-27T04:09:17.005Z,4.01
2022-11-27T04:12:19.705Z,3.96
2022-11-27T04:15:22.579Z,3.99
2022-11-27T04:18:26.627Z,3.92
2022-11-27T04:21:29.352Z,3.94
2022-11-27T04:24:32.049Z,3.97
2022-11-27T04:27:34.816Z,3.91
2022-11-27T04:30:37.818Z,3.94
2022-11-27T04:33:42.527Z,3.84
2022-11-27T04:36:46.582Z,3.87
2022-11-27T04:39:49.233Z,3.82
2022-11-27T04:42:52.160Z,3.88
2022-11-27T04:45:54.891Z,3.87
2022-11-27T04:48:59.087Z,3.83
2022-11-27T04:52:02.023Z,3.77
2022-11-27T04:55:05.338Z,3.72
2022-11-27T04:58:08.095Z,3.71
2022-11-27T05:01:10.929Z,3.65
2022-11-27T05:04:15.052Z,3.62
2022-11-27T05:07:17.771Z,3.60
2022-11-27T05:10:20.467Z,3.63
2022-11-27T05:13:23.185Z,3.56
2022-11-27T05:16:25.963Z,3.61
2022-11-27T05:19:31.707Z,3.70
2022-11-27T05:22:34.481Z,3.72
2022-11-27T05:25:37.347Z,3.70
2022-11-27T05:28:40.058Z,3.69
2022-11-27T05:31:44.285Z,3.60
2022-11-27T05:34:49.634Z,3.51
2022-11-27T05:37:52.366Z,3.39
2022-11-27T05:40:55.087Z,3.41
2022-11-27T05:43:57.809Z,3.32
2022-11-27T05:47:00.561Z,3.33
2022-11-27T05:50:05.467Z,3.28
2022-11-27T05:53:08.481Z,3.32
2022-11-27T05:56:14.455Z,3.30
2022-11-27T05:59:17.154Z,3.25
2022-11-27T06:02:22.695Z,3.25
2022-11-27T06:05:30.505Z,3.28
2022-11-27T06:08:33.278Z,3.28
2022-11-27T06:11:35.981Z,3.28
2022-11-27T06:14:39.023Z,3.25
2022-11-27T06:17:42.081Z,3.25
2022-11-27T06:20:52.747Z,3.29
2022-11-27T06:23:56.995Z,3.40
2022-11-27T06:26:59.734Z,3.36
2022-11-27T06:30:03.153Z,3.36
2022-11-27T06:33:05.885Z,3.35
2022-11-27T06:36:11.026Z,3.32
2022-11-27T06:39:13.789Z,3.30
2022-11-27T06:42:16.622Z,3.26
2022-11-27T06:45:19.307Z,3.21
2022-11-27T06:48:22.013Z,3.18
2022-11-27T06:51:27.800Z,3.20
2022-11-27T06:54:30.528Z,3.21
2022-11-27T06:57:33.212Z,3.24
2022-11-27T07:00:36.048Z,3.26
2022-11-27T07:03:38.859Z,3.30
2022-11-27T07:06:43.630Z,3.37
2022-11-27T07:09:46.507Z,3.35
2022-11-27T07:12:49.353Z,3.37
2022-11-27T07:15:52.080Z,3.30
2022-11-27T07:18:56.027Z,3.27
2022-11-27T07:22:00.070Z,3.34
2022-11-27T07:25:04.254Z,3.31
2022-11-27T07:28:06.933Z,3.26
2022-11-27T07:31:09.833Z,3.31
2022-11-27T07:34:17.076Z,3.27
2022-11-27T07:37:25.220Z,3.14
2022-11-27T07:40:28.078Z,3.05
2022-11-27T07:43:31.573Z,3.19
2022-11-27T07:46:34.349Z,3.19
2022-11-27T07:49:37.045Z,3.28
2022-11-27T07:52:42.298Z,3.36
2022-11-27T07:55:45.163Z,3.49
2022-11-27T07:58:48.531Z,3.43
2022-11-27T08:01:51.317Z,3.40
2022-11-27T08:04:54.122Z,3.35
2022-11-27T08:08:00.825Z,3.29
2022-11-27T08:11:03.613Z,3.23
2022-11-27T08:14:08.215Z,3.22
2022-11-27T08:17:13.780Z,3.12
2022-11-27T08:20:16.601Z,3.17
2022-11-27T08:23:20.622Z,3.21
2022-11-27T08:26:23.321Z,3.29
2022-11-27T08:29:31.158Z,3.24
2022-11-27T08:32:40.085Z,3.19
2022-11-27T08:35:49.199Z,3.15
2022-11-27T08:38:53.401Z,3.38
2022-11-27T08:41:56.245Z,3.45
2022-11-27T08:44:58.936Z,3.57
2022-11-27T08:48:01.947Z,3.72
2022-11-27T08:51:08.082Z,3.60
2022-11-27T08:54:12.769Z,3.58
2022-11-27T08:57:15.547Z,3.59
2022-11-27T09:00:22.425Z,3.63
2022-11-27T09:03:27.769Z,3.56
2022-11-27T09:06:33.204Z,3.48
2022-11-27T09:09:37.406Z,3.58
2022-11-27T09:12:43.381Z,3.70
2022-11-27T09:15:46.401Z,3.76
2022-11-27T09:18:51.535Z,3.84
2022-11-27T09:21:54.339Z,4.08
2022-11-27T09:24:58.403Z,4.28
2022-11-27T09:28:02.213Z,4.36
2022-11-27T09:31:07.789Z,4.47
2022-11-27T09:34:10.517Z,4.51
2022-11-27T09:37:13.317Z,4.48
2022-11-27T09:40:18.746Z,4.49
2022-11-27T09:43:29.477Z,4.59
2022-11-27T09:46:38.145Z,4.65
2022-11-27T09:49:44.393Z,4.76
2022-11-27T09:52:52.142Z,4.92
2022-11-27T09:55:59.644Z,5.09
2022-11-27T09:59:03.818Z,5.23
2022-11-27T10:02:16.609Z,5.56
2022-11-27T10:05:23.799Z,5.70
2022-11-27T10:08:37.459Z,5.84
2022-11-27T10:11:53.757Z,5.82
2022-11-27T10:15:05.780Z,5.65
2022-11-27T10:18:15.808Z,5.57
2022-11-27T10:21:28.437Z,5.52
2022-11-27T10:24:38.965Z,5.49
2022-11-27T10:27:49.259Z,5.57
2022-11-27T10:30:56.818Z,5.50
2022-11-27T10:34:03.725Z,5.69
2022-11-27T10:37:13.646Z,5.71
2022-11-27T10:40:24.363Z,5.73
2022-11-27T10:43:28.472Z,5.89
2022-11-27T10:46:37.205Z,5.69
2022-11-27T10:49:41.931Z,5.72
2022-11-27T10:52:52.500Z,5.84
2022-11-27T10:56:16.005Z,6.11
2022-11-27T10:59:27.670Z,6.18
2022-11-27T11:02:34.384Z,6.05
2022-11-27T11:05:57.372Z,6.19
2022-11-27T11:09:05.937Z,6.26
2022-11-27T11:12:09.613Z,6.39
2022-11-27T11:15:14.869Z,6.33
2022-11-27T11:18:18.720Z,6.30
2022-11-27T11:21:27.661Z,6.35
2022-11-27T11:24:32.057Z,6.34
2022-11-27T11:27:34.996Z,6.58
2022-11-27T11:30:39.638Z,6.73
2022-11-27T11:33:53.028Z,6.60
2022-11-27T11:37:02.035Z,7.01
2022-11-27T11:40:14.652Z,7.23
2022-11-27T11:43:26.909Z,7.20
2022-11-27T11:46:33.767Z,7.38
2022-11-27T11:49:37.198Z,7.30
2022-11-27T11:52:53.629Z,7.26
2022-11-27T11:56:06.886Z,7.27
2022-11-27T11:59:18.462Z,7.48
2022-11-27T12:02:41.341Z,7.59
2022-11-27T12:05:58.629Z,7.62
2022-11-27T12:09:17.102Z,7.73
2022-11-27T12:12:36.562Z,7.59
2022-11-27T12:15:45.750Z,7.54
2022-11-27T12:19:03.826Z,7.51
2022-11-27T12:22:19.683Z,7.53
2022-11-27T12:25:33.485Z,7.61
2022-11-27T12:28:58.849Z,7.48
2022-11-27T12:32:28.233Z,7.55
2022-11-27T12:35:39.632Z,7.64
2022-11-27T12:38:58.295Z,7.53
2022-11-27T12:42:12.493Z,7.42
2022-11-27T12:45:19.952Z,7.54
2022-11-27T12:48:28.094Z,7.61
2022-11-27T12:51:37.286Z,7.76
2022-11-27T12:54:47.480Z,7.70
2022-11-27T12:57:54.964Z,7.72
2022-11-27T13:01:03.317Z,7.61
2022-11-27T13:04:19.122Z,7.62
2022-11-27T13:07:27.932Z,7.71
2022-11-27T13:10:36.947Z,7.65
2022-11-27T13:13:44.301Z,7.61
2022-11-27T13:16:51.308Z,7.60
2022-11-27T13:19:54.420Z,7.71
2022-11-27T13:22:58.590Z,7.51
2022-11-27T13:26:05.945Z,7.33
2022-11-27T13:29:16.667Z,7.30
2022-11-27T13:32:22.703Z,7.32
2022-11-27T13:35:30.464Z,7.42
2022-11-27T13:38:37.467Z,7.34
2022-11-27T13:41:43.729Z,7.31
2022-11-27T13:44:55.806Z,7.25
2022-11-27T13:48:02.160Z,7.30
2022-11-27T13:51:06.945Z,7.31
2022-11-27T13:54:13.997Z,7.39
2022-11-27T13:57:18.701Z,7.36
2022-11-27T14:00:32.775Z,7.43
2022-11-27T14:03:36.551Z,7.34
2022-11-27T14:06:39.822Z,7.34
2022-11-27T14:09:48.131Z,7.28
2022-11-27T14:12:54.974Z,7.30
2022-11-27T14:16:04.800Z,7.32
2022-11-27T14:19:28.220Z,7.31
2022-11-27T14:23:07.233Z,7.24
2022-11-27T14:26:19.986Z,7.38
2022-11-27T14:29:23.871Z,7.18
2022-11-27T14:32:36.517Z,7.20
2022-11-27T14:35:41.789Z,7.08
2022-11-27T14:38:48.870Z,7.09
2022-11-27T14:42:00.055Z,6.99
2022-11-27T14:45:05.537Z,7.18
2022-11-27T14:48:08.266Z,7.21
2022-11-27T14:51:17.270Z,7.07
2022-11-27T14:54:25.543Z,6.80
2022-11-27T14:57:31.424Z,6.82
2022-11-27T15:00:34.168Z,6.67
2022-11-27T15:03:37.075Z,6.44
2022-11-27T15:06:42.906Z,6.44
2022-11-27T15:09:48.414Z,6.36
2022-11-27T15:12:52.996Z,6.16
2022-11-27T15:16:01.877Z,6.37
2022-11-27T15:19:07.100Z,6.37
2022-11-27T15:22:17.773Z,6.41
2022-11-27T15:25:36.389Z,6.45
2022-11-27T15:28:41.938Z,6.36
2022-11-27T15:31:52.001Z,6.45
2022-11-27T15:34:55.378Z,6.41
2022-11-27T15:38:04.206Z,6.45
2022-11-27T15:41:06.955Z,6.41
2022-11-27T15:44:11.225Z,6.38
2022-11-27T15:47:23.453Z,6.40
2022-11-27T15:50:26.358Z,6.43
2022-11-27T15:53:29.118Z,6.37
2022-11-27T15:56:31.788Z,6.41
2022-11-27T15:59:35.892Z,6.38
2022-11-27T16:02:38.770Z,6.47
2022-11-27T16:05:41.606Z,6.44
2022-11-27T16:08:44.413Z,6.42
2022-11-27T16:11:47.299Z,6.41
2022-11-27T16:14:51.535Z,6.46
2022-11-27T16:17:54.295Z,6.53
2022-11-27T16:20:57.003Z,6.53
2022-11-27T16:24:00.500Z,6.54
2022-11-27T16:27:03.528Z,6.67
2022-11-27T16:30:09.247Z,6.59
2022-11-27T16:33:11.882Z,6.60
2022-11-27T16:36:17.002Z,6.66
2022-11-27T16:39:19.842Z,6.66
2022-11-27T16:42:22.614Z,6.67
2022-11-27T16:45:26.691Z,6.78
2022-11-27T16:48:29.439Z,6.67
2022-11-27T16:51:33.455Z,6.66
2022-11-27T16:54:36.265Z,6.67
2022-11-27T16:57:39.436Z,6.64
2022-11-27T17:00:43.575Z,6.70
2022-11-27T17:03:46.380Z,6.72
2022-11-27T17:06:50.501Z,6.65
2022-11-27T17:09:53.217Z,6.59
2022-11-27T17:12:55.963Z,6.55
2022-11-27T17:16:03.037Z,6.53
2022-11-27T17:19:05.863Z,6.53
2022-11-27T17:22:08.793Z,6.40
2022-11-27T17:25:11.523Z,6.30
2022-11-27T17:28:14.218Z,6.27
2022-11-27T17:31:20.296Z,6.35
2022-11-27T17:34:23.077Z,6.21
2022-11-27T17:37:25.793Z,6.09
2022-11-27T17:40:30.605Z,6.45
2022-11-27T17:43:33.379Z,6.37
2022-11-27T17:46:39.949Z,6.02
2022-11-27T17:49:42.835Z,5.90
2022-11-27T17:52:45.837Z,5.94
2022-11-27T17:55:48.729Z,5.93
2022-11-27T17:58:51.402Z,6.02
2022-11-27T18:01:55.608Z,6.03
2022-11-27T18:04:58.319Z,6.07
2022-11-27T18:08:01.115Z,6.12
2022-11-27T18:11:06.126Z,6.20
2022-11-27T18:14:08.822Z,6.23
2022-11-27T18:17:17.069Z,6.22
2022-11-27T18:20:19.915Z,6.18
2022-11-27T18:23:23.081Z,6.19
2022-11-27T18:26:45.408Z,6.23
2022-11-27T18:29:50.004Z,6.35
2022-11-27T18:32:54.070Z,6.20
2022-11-27T18:35:56.748Z,6.11
2022-11-27T18:38:59.918Z,6.38
2022-11-27T18:42:05.686Z,6.40
2022-11-27T18:45:31.347Z,6.15
2022-11-27T18:48:34.757Z,6.05
2022-11-27T18:51:37.644Z,6.04
2022-11-27T18:54:40.444Z,6.03
2022-11-27T18:57:43.683Z,5.97
2022-11-27T19:00:46.426Z,6.03
2022-11-27T19:03:50.999Z,5.99
2022-11-27T19:06:53.707Z,6.13
2022-11-27T19:09:56.587Z,6.35
2022-11-27T19:12:59.305Z,6.30
2022-11-27T19:16:06.146Z,6.25
2022-11-27T19:19:49.295Z,6.18
2022-11-27T19:22:33.483Z,6.31
2022-11-27T19:25:38.629Z,6.18
2022-11-27T19:28:41.806Z,6.16
2022-11-27T19:31:44.594Z,6.18
2022-11-27T19:34:50.510Z,6.12
2022-11-27T19:37:53.716Z,6.09
2022-11-27T19:40:56.635Z,6.13
2022-11-27T19:44:01.114Z,6.14
2022-11-27T19:47:04.163Z,6.13
2022-11-27T19:50:09.217Z,6.16
2022-11-27T19:53:12.268Z,6.20
2022-11-27T19:56:15.011Z,6.30
2022-11-27T19:59:21.528Z,6.35
2022-11-27T20:02:30.055Z,6.28
2022-11-27T20:05:34.306Z,6.21
2022-11-27T20:08:37.089Z,6.15
2022-11-27T20:11:39.817Z,6.19
2022-11-27T20:14:42.832Z,6.28
2022-11-27T20:17:45.838Z,6.34
2022-11-27T20:20:50.230Z,6.40
2022-11-27T20:23:54.840Z,6.35
2022-11-27T20:26:57.628Z,6.40
2022-11-27T20:30:01.005Z,6.29
2022-11-27T20:33:07.552Z,6.23
2022-11-27T20:36:16.527Z,6.22
2022-11-27T20:39:21.912Z,6.06
2022-11-27T20:42:24.826Z,6.07
2022-11-27T20:45:28.193Z,5.97
2022-11-27T20:48:31.546Z,5.92
2022-11-27T20:51:35.816Z,5.90
2022-11-27T20:54:38.587Z,5.93
2022-11-27T20:57:41.845Z,6.02
2022-11-27T21:00:44.858Z,6.16
2022-11-27T21:03:49.677Z,6.29
2022-11-27T21:06:53.967Z,6.00
2022-11-27T21:09:56.922Z,6.05
2022-11-27T21:12:59.664Z,6.22
2022-11-27T21:16:02.550Z,6.01
2022-11-27T21:19:07.690Z,5.98
2022-11-27T21:22:11.742Z,6.08
2022-11-27T21:25:14.507Z,6.08
2022-11-27T21:28:17.527Z,6.00
2022-11-27T21:31:22.272Z,5.97
2022-11-27T21:34:26.190Z,6.08
2022-11-27T21:37:30.269Z,6.11
2022-11-27T21:40:33.244Z,6.00
2022-11-27T21:43:36.926Z,6.00
2022-11-27T21:46:39.918Z,5.99
2022-11-27T21:49:43.980Z,6.18
2022-11-27T21:52:48.140Z,6.01
2022-11-27T21:55:50.826Z,6.06
2022-11-27T21:58:53.869Z,6.08
2022-11-27T22:01:57.284Z,6.00
2022-11-27T22:05:00.314Z,5.94
2022-11-27T22:08:05.386Z,6.19
2022-11-27T22:11:09.180Z,6.20
2022-11-27T22:14:11.974Z,6.17
2022-11-27T22:17:14.822Z,6.05
2022-11-27T22:20:17.860Z,5.93
2022-11-27T22:23:22.065Z,5.82
2022-11-27T22:26:25.672Z,5.82
2022-11-27T22:29:28.594Z,5.80
2022-11-27T22:32:31.261Z,5.86
2022-11-27T22:35:33.975Z,5.86
2022-11-27T22:38:38.029Z,5.87
2022-11-27T22:41:41.897Z,5.84
2022-11-27T22:44:44.950Z,5.82
2022-11-27T22:47:47.781Z,5.82
2022-11-27T22:50:56.679Z,5.82
2022-11-27T22:54:01.947Z,5.84
2022-11-27T22:57:04.780Z,5.87
2022-11-27T23:00:09.839Z,5.90
2022-11-27T23:03:12.541Z,5.89
2022-11-27T23:06:17.216Z,5.89
2022-11-27T23:09:21.231Z,5.85
2022-11-27T23:12:23.883Z,5.78
2022-11-27T23:15:26.571Z,5.72
2022-11-27T23:18:29.285Z,5.66
2022-11-27T23:21:35.221Z,5.81
2022-11-27T23:24:39.594Z,5.96
2022-11-27T23:27:43.940Z,5.95
2022-11-27T23:30:46.675Z,5.96
2022-11-27T23:33:49.596Z,5.65
2022-11-27T23:36:52.390Z,5.56
2022-11-27T23:39:56.476Z,5.60
2022-11-27T23:42:59.249Z,5.76
2022-11-27T23:46:03.613Z,5.71
2022-11-27T23:49:06.453Z,5.71
2022-11-27T23:52:14.296Z,5.65
2022-11-27T23:55:20.985Z,5.40
2022-11-27T23:58:23.760Z,5.45
